Time;durP1;ratioP1;P1;durP2;ratioP2;P2;SDS_P1;SDS_P2;PMS_P1;PMS_P2;Temp;Humidity;BMP_temperature;BMP_pressure;BME280_temperature;BME280_humidity;BME280_pressure;Samples;Min_cycle;Max_cycle;Signal;HPM_P1;HPM_P2
2024/01/10 00:00:42;;;;;;;18.23;9.10;;;-3.40;1.00;;;;;;7376261;19;20014;-70
2024/01/10 00:03:12;;;;;;;19.08;8.68;;;-3.30;1.00;;;;;;7377683;19;20470;-69
2024/01/10 00:05:42;;;;;;;21.23;10.13;;;-3.30;1.00;;;;;;7377210;19;20018;-70
2024/01/10 00:08:12;;;;;;;21.05;9.90;;;-3.30;1.00;;;;;;7379013;19;20471;-70
2024/01/10 00:10:42;;;;;;;17.65;9.25;;;-3.40;1.00;;;;;;7379213;19;20082;-68
2024/01/10 00:13:15;;;;;;;22.17;11.27;;;-3.30;1.00;;;;;;7378229;19;20089;-70
2024/01/10 00:15:45;;;;;;;18.17;9.77;;;-3.30;1.00;;;;;;7378918;19;20019;-69
2024/01/10 00:18:16;;;;;;;18.60;8.88;;;-3.30;1.00;;;;;;7378369;19;20459;-69
2024/01/10 00:20:47;;;;;;;19.02;8.75;;;-3.30;1.00;;;;;;7379344;19;20055;-69
2024/01/10 00:23:17;;;;;;;18.20;9.65;;;-3.40;1.00;;;;;;7377566;19;20086;-70
2024/01/10 00:25:47;;;;;;;18.35;9.23;;;-3.30;1.00;;;;;;7379072;19;20423;-69
2024/01/10 00:28:20;;;;;;;17.65;9.13;;;-3.30;1.00;;;;;;7378343;19;20010;-69
2024/01/10 00:30:50;;;;;;;22.48;9.88;;;-3.30;1.00;;;;;;7378184;19;20018;-70
2024/01/10 00:33:20;;;;;;;19.65;8.75;;;-3.20;1.00;;;;;;7378500;19;20026;-69
2024/01/10 00:35:50;;;;;;;19.83;9.10;;;-3.30;1.00;;;;;;7377337;19;21279;-70
2024/01/10 00:38:20;;;;;;;18.25;9.65;;;-3.40;1.00;;;;;;7378507;19;20423;-70
2024/01/10 00:40:51;;;;;;;18.02;8.00;;;-3.30;1.00;;;;;;7377320;19;20026;-70
2024/01/10 00:43:24;;;;;;;17.75;8.95;;;-3.30;1.00;;;;;;7378287;19;20030;-69
2024/01/10 00:45:54;;;;;;;19.27;9.18;;;-3.30;1.00;;;;;;7377012;19;20010;-70
2024/01/10 00:48:24;;;;;;;18.35;9.32;;;-3.30;1.00;;;;;;7378300;19;20491;-69
2024/01/10 00:50:54;;;;;;;20.00;9.35;;;-3.20;1.00;;;;;;7377494;19;20369;-69
2024/01/10 00:53:24;;;;;;;19.33;9.63;;;-3.30;1.00;;;;;;7377361;19;20011;-69
2024/01/10 00:55:57;;;;;;;18.38;9.30;;;-3.30;1.00;;;;;;7376763;19;20006;-68
2024/01/10 00:58:31;;;;;;;18.83;9.32;;;-3.30;1.00;;;;;;7378338;19;20361;-68
2024/01/10 01:01:01;;;;;;;18.33;8.57;;;-3.30;1.00;;;;;;7371996;19;20017;-70
2024/01/10 01:03:31;;;;;;;23.75;10.13;;;-3.30;1.00;;;;;;7373820;19;20503;-69
2024/01/10 01:06:01;;;;;;;19.80;10.20;;;-3.30;1.00;;;;;;7376026;19;20039;-69
2024/01/10 01:08:32;;;;;;;20.05;10.27;;;-3.30;1.00;;;;;;7373781;19;20491;-69
2024/01/10 01:11:02;;;;;;;21.85;9.50;;;-3.30;1.00;;;;;;7375901;19;20078;-68
2024/01/10 01:13:34;;;;;;;17.42;9.35;;;-3.30;1.00;;;;;;7376045;19;20022;-69
2024/01/10 01:16:05;;;;;;;19.88;8.82;;;-3.30;1.00;;;;;;7375212;19;20007;-69
2024/01/10 01:18:35;;;;;;;19.10;9.57;;;-3.30;1.00;;;;;;7377544;19;20779;-70
2024/01/10 01:21:06;;;;;;;19.25;9.32;;;-3.30;1.00;;;;;;7375829;19;20010;-69
2024/01/10 01:23:36;;;;;;;20.35;9.35;;;-3.40;1.00;;;;;;7377020;19;20770;-70
2024/01/10 01:26:12;;;;;;;19.05;9.30;;;-3.40;1.00;;;;;;7375322;19;20015;-68
2024/01/10 01:28:45;;;;;;;19.38;9.55;;;-3.40;1.00;;;;;;7376834;19;20073;-69
2024/01/10 01:31:15;;;;;;;23.90;10.43;;;-3.40;1.00;;;;;;7376793;19;20060;-68
2024/01/10 01:33:45;;;;;;;20.48;9.52;;;-3.40;1.00;;;;;;7377339;19;20014;-68
2024/01/10 01:36:15;;;;;;;18.58;9.57;;;-3.50;1.00;;;;;;7375042;19;20018;-69
2024/01/10 01:38:45;;;;;;;19.33;9.65;;;-3.50;1.00;;;;;;7377702;19;20010;-69
2024/01/10 01:41:15;;;;;;;20.63;10.32;;;-3.50;1.00;;;;;;7374204;19;20011;-69
2024/01/10 01:43:48;;;;;;;16.50;9.00;;;-3.50;1.00;;;;;;7375804;19;20404;-69
2024/01/10 01:46:18;;;;;;;18.17;8.82;;;-3.40;1.00;;;;;;7374412;19;20553;-69
2024/01/10 01:48:49;;;;;;;23.15;10.38;;;-3.50;1.00;;;;;;7382548;19;20490;-69
2024/01/10 01:51:22;;;;;;;18.40;9.32;;;-3.50;1.00;;;;;;7382815;19;20018;-69
2024/01/10 01:53:53;;;;;;;21.13;9.38;;;-3.40;1.00;;;;;;7382731;19;21147;-68
2024/01/10 01:56:23;;;;;;;20.23;9.77;;;-3.40;1.00;;;;;;7381877;19;20043;-70
2024/01/10 01:58:57;;;;;;;20.17;9.45;;;-3.40;1.00;;;;;;7382744;19;20071;-70
2024/01/10 02:01:27;;;;;;;17.23;9.80;;;-3.50;1.00;;;;;;7382226;19;20006;-69
2024/01/10 02:03:58;;;;;;;20.95;9.88;;;-3.50;1.00;;;;;;7383003;19;20479;-68
2024/01/10 02:06:29;;;;;;;19.23;9.13;;;-3.50;1.00;;;;;;7386231;19;20546;-69
2024/01/10 02:08:59;;;;;;;21.42;9.60;;;-3.40;1.00;;;;;;7387221;19;20048;-69
2024/01/10 02:11:30;;;;;;;18.55;9.77;;;-3.30;1.00;;;;;;7382069;19;20010;-69
2024/01/10 02:14:03;;;;;;;22.05;9.18;;;-3.40;1.00;;;;;;7381927;19;20010;-69
2024/01/10 02:16:33;;;;;;;19.00;9.43;;;-3.40;1.00;;;;;;7379542;19;20010;-69
2024/01/10 02:19:03;;;;;;;18.42;9.15;;;-3.30;1.00;;;;;;7382603;19;20010;-70
2024/01/10 02:21:33;;;;;;;14.43;9.10;;;-3.40;1.00;;;;;;7381912;19;20015;-70
2024/01/10 02:24:03;;;;;;;16.40;8.05;;;-3.40;1.00;;;;;;7383596;19;20081;-69
2024/01/10 02:26:36;;;;;;;15.65;8.93;;;-3.30;1.00;;;;;;7382407;19;20010;-69
2024/01/10 02:29:06;;;;;;;21.05;10.20;;;-3.40;1.00;;;;;;7380993;19;20390;-70
2024/01/10 02:31:36;;;;;;;22.58;9.45;;;-3.40;1.00;;;;;;7382576;19;20018;-67
2024/01/10 02:34:06;;;;;;;19.77;10.70;;;-3.40;1.00;;;;;;7382773;19;20014;-69
2024/01/10 02:36:36;;;;;;;17.23;9.50;;;-3.40;1.00;;;;;;7381736;19;20011;-69
2024/01/10 02:39:06;;;;;;;19.10;9.48;;;-3.40;1.00;;;;;;7381245;19;20010;-67
2024/01/10 02:41:39;;;;;;;20.25;9.95;;;-3.40;1.00;;;;;;7380634;19;20022;-69
2024/01/10 02:44:09;;;;;;;19.60;9.68;;;-3.40;1.00;;;;;;7381724;19;20020;-69
2024/01/10 02:46:39;;;;;;;19.80;9.57;;;-3.40;1.00;;;;;;7382592;19;20042;-70
2024/01/10 02:49:09;;;;;;;18.48;9.95;;;-3.50;1.00;;;;;;7381541;19;20014;-69
2024/01/10 02:51:40;;;;;;;24.95;10.20;;;-3.50;1.00;;;;;;7382847;19;20028;-68
2024/01/10 02:54:10;;;;;;;17.70;9.25;;;-3.40;1.00;;;;;;7381707;19;20010;-69
2024/01/10 02:56:43;;;;;;;22.73;10.75;;;-3.50;1.00;;;;;;7381446;19;20459;-69
2024/01/10 02:59:14;;;;;;;18.23;9.40;;;-3.50;1.00;;;;;;7379209;19;20011;-68
2024/01/10 03:01:44;;;;;;;24.08;9.75;;;-3.60;1.00;;;;;;7381473;19;20013;-68
2024/01/10 03:04:14;;;;;;;24.35;10.60;;;-3.60;1.00;;;;;;7380859;19;20363;-69
2024/01/10 03:06:45;;;;;;;19.20;9.98;;;-3.60;1.00;;;;;;7380689;19;20373;-69
2024/01/10 03:09:15;;;;;;;25.55;10.35;;;-3.60;1.00;;;;;;7380711;19;20466;-69
2024/01/10 03:11:47;;;;;;;18.52;9.45;;;-3.60;1.00;;;;;;7381625;19;20018;-68
2024/01/10 03:14:17;;;;;;;20.73;9.98;;;-3.70;1.00;;;;;;7381160;19;20081;-69
2024/01/10 03:16:48;;;;;;;23.40;9.88;;;-3.70;1.00;;;;;;7381958;19;20021;-69
2024/01/10 03:19:18;;;;;;;18.60;9.90;;;-3.70;1.00;;;;;;7380241;19;20050;-68
2024/01/10 03:21:48;;;;;;;27.42;10.50;;;-3.70;1.00;;;;;;7381242;19;20345;-69
2024/01/10 03:24:18;;;;;;;24.80;12.02;;;-3.70;1.00;;;;;;7381685;19;20502;-69
2024/01/10 03:26:51;;;;;;;20.02;9.95;;;-3.70;1.00;;;;;;7379527;19;20011;-69
2024/01/10 03:29:21;;;;;;;20.60;10.57;;;-3.70;1.00;;;;;;7379332;19;20035;-69
2024/01/10 03:31:51;;;;;;;20.10;9.70;;;-3.70;1.00;;;;;;7380595;19;20035;-69
2024/01/10 03:34:21;;;;;;;22.48;10.20;;;-3.70;1.00;;;;;;7379841;19;20086;-70
2024/01/10 03:36:51;;;;;;;20.45;10.55;;;-3.70;1.00;;;;;;7379537;19;20053;-69
2024/01/10 03:39:22;;;;;;;23.38;10.38;;;-3.70;1.00;;;;;;7378493;19;20426;-69
2024/01/10 03:41:55;;;;;;;23.25;9.95;;;-3.70;1.00;;;;;;7379903;19;20017;-69
2024/01/10 03:44:25;;;;;;;21.95;10.05;;;-3.70;1.00;;;;;;7378978;19;20022;-69
2024/01/10 03:46:55;;;;;;;19.65;9.57;;;-3.60;1.00;;;;;;7378701;19;20006;-69
2024/01/10 03:49:25;;;;;;;23.75;9.30;;;-3.60;1.00;;;;;;7378063;19;20148;-69
2024/01/10 03:51:55;;;;;;;28.48;10.57;;;-3.70;1.00;;;;;;7378677;19;20486;-69
2024/01/10 03:54:25;;;;;;;19.75;9.95;;;-3.60;1.00;;;;;;7377324;19;20006;-70
2024/01/10 03:56:58;;;;;;;20.33;9.63;;;-3.60;1.00;;;;;;7378573;19;20041;-69
2024/01/10 03:59:28;;;;;;;28.15;9.98;;;-3.60;1.00;;;;;;7377365;19;20015;-69
2024/01/10 04:02:00;;;;;;;20.00;9.85;;;-3.60;1.00;;;;;;7376085;19;20022;-68
2024/01/10 04:04:30;;;;;;;21.27;10.60;;;-3.60;1.00;;;;;;7378012;19;20017;-69
2024/01/10 04:07:00;;;;;;;21.58;10.10;;;-3.70;1.00;;;;;;7377883;19;20025;-70
2024/01/10 04:09:31;;;;;;;20.25;9.75;;;-3.60;1.00;;;;;;7376118;19;20032;-69
2024/01/10 04:12:01;;;;;;;16.88;9.07;;;-3.60;1.00;;;;;;7378023;19;20014;-69
2024/01/10 04:14:31;;;;;;;19.48;9.70;;;-3.50;1.00;;;;;;7377951;19;20014;-69
2024/01/10 04:17:01;;;;;;;18.20;8.57;;;-3.60;1.00;;;;;;7380122;19;20010;-69
2024/01/10 04:19:31;;;;;;;21.63;10.80;;;-3.50;1.00;;;;;;7372065;19;20018;-69
2024/01/10 04:22:01;;;;;;;19.80;9.15;;;-3.50;1.00;;;;;;7377740;19;20499;-68
2024/01/10 04:24:31;;;;;;;20.27;10.65;;;-3.40;1.00;;;;;;7379145;19;20006;-69
2024/01/10 04:27:04;;;;;;;22.23;10.15;;;-3.50;1.00;;;;;;7380690;19;20006;-68
2024/01/10 04:29:38;;;;;;;22.42;10.70;;;-3.40;1.00;;;;;;7377007;19;20014;-69
2024/01/10 04:32:09;;;;;;;26.48;10.00;;;-3.40;1.00;;;;;;7374046;19;20017;-69
2024/01/10 04:34:39;;;;;;;21.30;10.20;;;-3.40;1.00;;;;;;7376334;19;20021;-70
2024/01/10 04:37:10;;;;;;;21.55;10.93;;;-3.40;1.00;;;;;;7375461;19;20403;-69
2024/01/10 04:39:42;;;;;;;21.13;11.02;;;-3.40;1.00;;;;;;7375781;19;20478;-69
2024/01/10 04:42:15;;;;;;;21.27;9.95;;;-3.40;1.00;;;;;;7377065;19;20090;-69
2024/01/10 04:44:45;;;;;;;18.60;10.03;;;-3.40;1.00;;;;;;7377088;19;20502;-70
2024/01/10 04:47:15;;;;;;;19.63;10.10;;;-3.20;1.00;;;;;;7376562;19;20015;-69
2024/01/10 04:49:46;;;;;;;22.83;10.15;;;-3.30;1.00;;;;;;7375994;19;20049;-69
2024/01/10 04:52:16;;;;;;;21.23;10.60;;;-3.40;1.00;;;;;;7376541;19;20014;-70
2024/01/10 04:54:46;;;;;;;21.08;9.32;;;-3.40;1.00;;;;;;7376878;19;20022;-69
2024/01/10 04:57:19;;;;;;;21.98;10.93;;;-3.40;1.00;;;;;;7376255;19;20014;-69
2024/01/10 04:59:50;;;;;;;20.65;9.52;;;-3.40;1.00;;;;;;7376178;19;20022;-69
2024/01/10 05:02:20;;;;;;;22.08;10.35;;;-3.30;1.00;;;;;;7376334;19;20015;-69
2024/01/10 05:04:52;;;;;;;20.15;10.40;;;-3.20;1.00;;;;;;7375425;19;20039;-69
2024/01/10 05:07:22;;;;;;;21.13;10.40;;;-3.20;1.00;;;;;;7375664;19;20026;-69
2024/01/10 05:09:52;;;;;;;21.17;11.38;;;-3.20;1.00;;;;;;7377083;19;20090;-69
2024/01/10 05:12:25;;;;;;;20.70;10.35;;;-3.10;1.00;;;;;;7376072;19;20018;-70
2024/01/10 05:14:55;;;;;;;20.30;10.43;;;-3.30;1.00;;;;;;7375775;19;20013;-69
2024/01/10 05:17:25;;;;;;;22.20;10.77;;;-3.20;1.00;;;;;;7376486;19;20019;-69
2024/01/10 05:19:55;;;;;;;21.40;11.52;;;-3.20;1.00;;;;;;7376154;19;20010;-69
2024/01/10 05:22:25;;;;;;;20.30;10.90;;;-3.20;1.00;;;;;;7378923;19;20034;-69
2024/01/10 05:24:55;;;;;;;21.55;10.82;;;-3.20;1.00;;;;;;7381868;19;20017;-69
2024/01/10 05:27:29;;;;;;;22.70;10.80;;;-3.20;1.00;;;;;;7382409;19;20098;-68
2024/01/10 05:29:59;;;;;;;25.40;12.18;;;-3.20;1.00;;;;;;7381598;19;20013;-69
2024/01/10 05:32:30;;;;;;;21.45;11.20;;;-3.20;1.00;;;;;;7382228;19;20014;-69
2024/01/10 05:35:00;;;;;;;24.75;11.48;;;-3.20;1.00;;;;;;7383097;19;20013;-70
2024/01/10 05:37:30;;;;;;;25.77;11.23;;;-3.10;1.00;;;;;;7381864;19;20011;-70
2024/01/10 05:40:00;;;;;;;21.33;10.55;;;-3.10;1.00;;;;;;7380760;19;20014;-69
2024/01/10 05:42:33;;;;;;;24.63;11.82;;;-3.20;1.00;;;;;;7382569;19;20360;-70
2024/01/10 05:45:04;;;;;;;24.52;11.00;;;-3.30;1.00;;;;;;7383289;19;20795;-69
2024/01/10 05:47:34;;;;;;;22.40;10.85;;;-3.30;1.00;;;;;;7382088;19;20013;-69
2024/01/10 05:50:06;;;;;;;26.58;10.18;;;-3.40;1.00;;;;;;7380822;19;20022;-70
2024/01/10 05:52:36;;;;;;;21.65;10.75;;;-3.30;1.00;;;;;;7383066;19;20010;-69
2024/01/10 05:55:08;;;;;;;21.92;10.38;;;-3.30;1.00;;;;;;7379975;19;20494;-69
2024/01/10 05:57:42;;;;;;;22.98;11.90;;;-3.40;1.00;;;;;;7376168;19;20101;-69
2024/01/10 06:00:16;;;;;;;22.38;10.57;;;-3.40;1.00;;;;;;7382038;19;20015;-69
2024/01/10 06:02:46;;;;;;;22.25;9.95;;;-3.40;1.00;;;;;;7381745;19;20126;-70
2024/01/10 06:05:16;;;;;;;22.38;11.27;;;-3.30;1.00;;;;;;7379519;19;20040;-71
2024/01/10 06:07:47;;;;;;;23.00;10.40;;;-3.20;1.00;;;;;;7380023;19;20007;-69
2024/01/10 06:10:17;;;;;;;23.35;10.65;;;-3.20;1.00;;;;;;7380521;19;20040;-68
2024/01/10 06:12:49;;;;;;;20.20;11.15;;;-3.20;1.00;;;;;;7381523;19;20783;-68
2024/01/10 06:15:19;;;;;;;21.73;10.70;;;-3.20;1.00;;;;;;7379956;19;20483;-69
2024/01/10 06:17:50;;;;;;;20.65;11.20;;;-3.30;1.00;;;;;;7380985;19;20471;-70
2024/01/10 06:20:20;;;;;;;22.05;10.13;;;-3.30;1.00;;;;;;7378714;19;20558;-69
2024/01/10 06:22:51;;;;;;;21.58;10.90;;;-3.30;1.00;;;;;;7379838;19;20086;-69
2024/01/10 06:25:21;;;;;;;25.88;12.35;;;-3.30;1.00;;;;;;7380199;19;20014;-69
2024/01/10 06:27:54;;;;;;;21.63;9.98;;;-3.30;1.00;;;;;;7381325;19;20014;-69
2024/01/10 06:30:24;;;;;;;24.75;11.05;;;-3.40;1.00;;;;;;7380967;19;20002;-69
2024/01/10 06:32:55;;;;;;;21.92;11.25;;;-3.30;1.00;;;;;;7379949;19;20011;-69
2024/01/10 06:35:25;;;;;;;24.42;10.68;;;-3.40;1.00;;;;;;7380109;19;20022;-68
2024/01/10 06:37:55;;;;;;;24.73;11.18;;;-3.40;1.00;;;;;;7379481;19;20582;-70
2024/01/10 06:40:25;;;;;;;27.77;10.77;;;-3.40;1.00;;;;;;7379893;19;20010;-68
2024/01/10 06:42:58;;;;;;;24.30;11.70;;;-3.40;1.00;;;;;;7380651;19;20094;-69
2024/01/10 06:45:28;;;;;;;23.45;11.32;;;-3.30;1.00;;;;;;7380115;19;20463;-69
2024/01/10 06:47:58;;;;;;;22.15;11.20;;;-3.30;1.00;;;;;;7382334;19;20093;-70
2024/01/10 06:50:30;;;;;;;22.13;11.13;;;-3.40;1.00;;;;;;7380878;19;20010;-68
2024/01/10 06:53:00;;;;;;;20.70;9.93;;;-3.40;1.00;;;;;;7383294;19;20347;-69
2024/01/10 06:55:30;;;;;;;24.85;11.43;;;-3.30;1.00;;;;;;7380894;19;20035;-69
2024/01/10 06:58:03;;;;;;;24.42;10.75;;;-3.30;1.00;;;;;;7380820;19;20021;-69
2024/01/10 07:00:33;;;;;;;22.50;10.88;;;-3.30;1.00;;;;;;7378972;19;20014;-69
2024/01/10 07:03:04;;;;;;;21.08;10.45;;;-3.30;1.00;;;;;;7380724;19;20628;-68
2024/01/10 07:05:34;;;;;;;24.58;11.77;;;-3.40;1.00;;;;;;7378946;19;20090;-69
2024/01/10 07:08:05;;;;;;;24.67;12.98;;;-3.40;1.00;;;;;;7380165;19;20033;-69
2024/01/10 07:10:35;;;;;;;27.85;11.68;;;-3.40;1.00;;;;;;7378999;19;21072;-68
2024/01/10 07:13:08;;;;;;;22.73;11.57;;;-3.40;1.00;;;;;;7378260;19;20015;-68
2024/01/10 07:15:38;;;;;;;28.15;12.15;;;-3.30;1.00;;;;;;7378925;19;20098;-69
2024/01/10 07:18:09;;;;;;;21.98;11.52;;;-3.40;1.00;;;;;;7380469;19;20074;-68
2024/01/10 07:20:39;;;;;;;24.80;12.63;;;-3.50;1.00;;;;;;7377714;19;20085;-69
2024/01/10 07:23:10;;;;;;;30.48;13.77;;;-3.40;1.00;;;;;;7379306;19;20162;-69
2024/01/10 07:25:40;;;;;;;25.17;12.88;;;-3.40;1.00;;;;;;7379311;19;20010;-70
2024/01/10 07:28:13;;;;;;;23.27;13.07;;;-3.30;1.00;;;;;;7379243;19;20002;-69
2024/01/10 07:30:44;;;;;;;26.90;12.02;;;-3.30;1.00;;;;;;7380566;19;20010;-69
2024/01/10 07:33:15;;;;;;;26.95;11.82;;;-3.30;1.00;;;;;;7376588;19;20013;-69
2024/01/10 07:35:45;;;;;;;29.15;12.13;;;-3.40;1.00;;;;;;7376962;19;20013;-69
2024/01/10 07:38:16;;;;;;;22.33;11.10;;;-3.20;1.00;;;;;;7379838;19;20352;-68
2024/01/10 07:40:46;;;;;;;35.72;14.20;;;-3.40;1.00;;;;;;7377029;19;20011;-68
2024/01/10 07:43:18;;;;;;;28.17;12.50;;;-3.30;1.00;;;;;;7380086;19;20092;-69
2024/01/10 07:45:48;;;;;;;28.23;11.50;;;-3.10;1.00;;;;;;7374442;19;20019;-70
2024/01/10 07:48:20;;;;;;;25.42;11.95;;;-3.20;1.00;;;;;;7381342;19;20045;-69
2024/01/10 07:50:50;;;;;;;24.38;11.88;;;-3.20;1.00;;;;;;7372672;19;20042;-72
2024/01/10 07:53:20;;;;;;;28.58;12.75;;;-3.20;1.00;;;;;;7378926;19;20031;-72
2024/01/10 07:55:51;;;;;;;28.42;12.52;;;-3.20;1.00;;;;;;7378287;19;20006;-68
2024/01/10 07:58:24;;;;;;;27.90;12.65;;;-3.20;1.00;;;;;;7377955;19;20027;-69
2024/01/10 08:00:54;;;;;;;27.65;12.18;;;-3.30;1.00;;;;;;7377526;19;20014;-69
2024/01/10 08:03:24;;;;;;;27.40;14.15;;;-3.20;1.00;;;;;;7378192;19;20333;-69
2024/01/10 08:05:54;;;;;;;24.77;12.30;;;-3.20;1.00;;;;;;7377423;19;20019;-69
2024/01/10 08:08:24;;;;;;;39.08;12.88;;;-3.10;1.00;;;;;;7376926;19;20007;-69
2024/01/10 08:10:54;;;;;;;25.50;12.13;;;-2.90;1.00;;;;;;7376806;19;20009;-70
2024/01/10 08:13:27;;;;;;;37.25;13.60;;;-2.90;1.00;;;;;;7376235;19;20035;-69
2024/01/10 08:15:57;;;;;;;36.50;12.02;;;-2.90;1.00;;;;;;7375951;19;20018;-69
2024/01/10 08:18:27;;;;;;;30.60;12.82;;;-2.70;1.00;;;;;;7375708;19;20012;-69
2024/01/10 08:20:58;;;;;;;25.55;11.75;;;-2.70;1.00;;;;;;7375123;19;20010;-70
2024/01/10 08:23:28;;;;;;;25.45;12.23;;;-2.60;1.00;;;;;;7376960;19;20019;-70
2024/01/10 08:25:58;;;;;;;26.05;12.80;;;-2.60;1.00;;;;;;7376699;19;20409;-70
2024/01/10 08:28:31;;;;;;;23.92;12.25;;;-2.60;1.00;;;;;;7375397;19;20021;-69
2024/01/10 08:31:01;;;;;;;23.38;12.63;;;-2.60;1.00;;;;;;7377660;19;20025;-69
2024/01/10 08:33:34;;;;;;;26.20;11.70;;;-2.80;1.00;;;;;;7377319;19;20006;-69
2024/01/10 08:36:04;;;;;;;24.80;11.57;;;-2.70;1.00;;;;;;7377559;19;20904;-69
2024/01/10 08:38:35;;;;;;;27.55;12.13;;;-2.70;1.00;;;;;;7377204;19;20025;-70
2024/01/10 08:41:05;;;;;;;25.02;12.75;;;-2.70;1.00;;;;;;7377574;19;20086;-70
2024/01/10 08:43:38;;;;;;;23.48;12.90;;;-2.50;1.00;;;;;;7377026;19;20459;-70
2024/01/10 08:46:08;;;;;;;24.25;13.27;;;-2.40;1.00;;;;;;7377039;19;20109;-69
2024/01/10 08:48:39;;;;;;;25.23;13.55;;;-2.50;1.00;;;;;;7376616;19;20077;-68
2024/01/10 08:51:10;;;;;;;26.02;13.48;;;-2.60;1.00;;;;;;7376484;19;20018;-68
2024/01/10 08:53:40;;;;;;;26.00;13.35;;;-2.40;1.00;;;;;;7375322;19;20519;-69
2024/01/10 08:56:10;;;;;;;23.30;13.82;;;-2.20;1.00;;;;;;7377059;19;20018;-69
2024/01/10 08:58:43;;;;;;;24.45;12.90;;;-2.20;1.00;;;;;;7382147;19;20030;-69
2024/01/10 09:01:13;;;;;;;25.17;14.40;;;-2.10;1.00;;;;;;7381800;19;20018;-70
2024/01/10 09:03:43;;;;;;;28.25;12.98;;;-1.90;1.00;;;;;;7381843;19;20037;-70
2024/01/10 09:06:13;;;;;;;25.23;14.82;;;-1.70;1.00;;;;;;7382661;19;20015;-69
2024/01/10 09:08:43;;;;;;;29.48;15.38;;;-1.90;1.00;;;;;;7383232;19;20389;-69
2024/01/10 09:11:13;;;;;;;30.30;12.98;;;-2.10;1.00;;;;;;7386354;19;20010;-69
2024/01/10 09:13:46;;;;;;;29.60;15.05;;;-1.80;1.00;;;;;;7386608;19;20463;-69
2024/01/10 09:16:16;;;;;;;30.85;15.23;;;-1.80;1.00;;;;;;7382631;19;20111;-69
2024/01/10 09:18:46;;;;;;;30.98;16.35;;;-1.70;1.00;;;;;;7381789;19;20007;-69
2024/01/10 09:21:16;;;;;;;33.00;17.80;;;-1.60;1.00;;;;;;7383470;19;20033;-68
2024/01/10 09:23:47;;;;;;;30.67;17.23;;;-1.80;1.00;;;;;;7380760;19;20364;-69
2024/01/10 09:26:17;;;;;;;26.35;14.48;;;-2.00;1.00;;;;;;7381514;19;20010;-69
2024/01/10 09:28:50;;;;;;;31.17;15.88;;;-2.00;1.00;;;;;;7382019;19;20026;-69
2024/01/10 09:31:20;;;;;;;31.83;16.40;;;-2.00;1.00;;;;;;7380362;19;20010;-68
2024/01/10 09:33:50;;;;;;;31.98;17.02;;;-1.80;1.00;;;;;;7381878;19;20048;-69
2024/01/10 09:36:20;;;;;;;31.52;17.38;;;-1.80;1.00;;;;;;7381298;19;19999;-69
2024/01/10 09:38:51;;;;;;;27.83;16.98;;;-1.60;1.00;;;;;;7380926;19;20003;-68
2024/01/10 09:41:21;;;;;;;32.63;17.38;;;-1.40;1.00;;;;;;7381503;19;20010;-68
2024/01/10 09:43:54;;;;;;;45.97;18.13;;;-1.40;1.00;;;;;;7382579;19;20018;-69
2024/01/10 09:46:24;;;;;;;31.67;17.65;;;-1.20;1.00;;;;;;7383887;19;20022;-69
2024/01/10 09:48:54;;;;;;;34.08;19.13;;;-1.30;1.00;;;;;;7382356;19;20018;-69
2024/01/10 09:51:30;;;;;;;33.05;18.50;;;-1.30;1.00;;;;;;7379485;19;20052;-69
2024/01/10 09:54:04;;;;;;;31.63;18.10;;;-1.30;1.00;;;;;;7381247;19;20013;-70
2024/01/10 09:56:35;;;;;;;35.88;19.45;;;-1.30;1.00;;;;;;7381536;19;20018;-70
2024/01/10 09:59:10;;;;;;;39.40;20.08;;;-1.30;1.00;;;;;;7380985;19;20032;-69
2024/01/10 10:01:41;;;;;;;33.28;17.33;;;-1.10;1.00;;;;;;7381100;19;20018;-69
2024/01/10 10:04:15;;;;;;;32.60;18.65;;;-1.00;1.00;;;;;;7381998;19;20015;-69
2024/01/10 10:06:45;;;;;;;34.75;18.52;;;-1.10;1.00;;;;;;7381049;19;20352;-70
2024/01/10 10:09:17;;;;;;;52.38;20.35;;;-1.10;1.00;;;;;;7379897;19;20029;-69
2024/01/10 10:11:57;;;;;;;36.38;19.88;;;-1.20;1.00;;;;;;7381799;19;20449;-68
2024/01/10 10:14:32;;;;;;;56.90;21.27;;;-1.20;1.00;;;;;;7379603;19;20011;-69
2024/01/10 10:17:17;;;;;;;40.45;20.85;;;-1.20;1.00;;;;;;7378698;19;20018;-69
2024/01/10 10:19:47;;;;;;;37.65;20.58;;;-1.20;1.00;;;;;;7379702;19;20014;-69
2024/01/10 10:22:18;;;;;;;34.13;18.83;;;-1.10;1.00;;;;;;7380062;19;20011;-68
2024/01/10 10:24:53;;;;;;;33.40;19.85;;;-1.10;1.00;;;;;;7380583;19;20007;-69
2024/01/10 10:27:23;;;;;;;35.55;20.13;;;-1.10;1.00;;;;;;7382383;19;20023;-69
2024/01/10 10:29:56;;;;;;;36.83;20.42;;;-1.00;1.00;;;;;;7380535;19;20027;-68
2024/01/10 10:32:26;;;;;;;34.53;19.30;;;-1.10;1.00;;;;;;7380811;19;20101;-69
2024/01/10 10:34:59;;;;;;;34.45;19.15;;;-1.00;1.00;;;;;;7380841;19;20014;-69
2024/01/10 10:37:29;;;;;;;34.03;19.92;;;-0.90;1.00;;;;;;7378218;19;20017;-70
2024/01/10 10:39:59;;;;;;;37.03;19.88;;;-1.00;1.00;;;;;;7379605;19;20018;-69
2024/01/10 10:42:33;;;;;;;37.97;21.73;;;-1.00;1.00;;;;;;7380456;19;20018;-70
2024/01/10 10:45:09;;;;;;;35.88;20.00;;;-1.10;1.00;;;;;;7377337;19;20488;-71
2024/01/10 10:47:43;;;;;;;36.00;20.65;;;-1.00;1.00;;;;;;7381130;19;20100;-70
2024/01/10 10:50:22;;;;;;;44.25;22.05;;;-1.00;1.00;;;;;;7381842;19;20040;-70
2024/01/10 10:52:55;;;;;;;38.67;20.70;;;-0.90;1.00;;;;;;7380659;19;20571;-70
2024/01/10 10:55:26;;;;;;;33.45;19.20;;;-0.80;1.00;;;;;;7380359;19;20010;-69
2024/01/10 10:57:58;;;;;;;36.33;21.08;;;-0.90;1.00;;;;;;7380765;19;20015;-70
2024/01/10 11:00:40;;;;;;;35.38;20.10;;;-0.70;1.00;;;;;;7376545;19;20014;-70
2024/01/10 11:03:13;;;;;;;38.53;21.77;;;-0.60;1.00;;;;;;7379061;19;20023;-69
2024/01/10 11:05:44;;;;;;;36.13;21.60;;;-0.60;1.00;;;;;;7379290;19;20141;-69
2024/01/10 11:08:16;;;;;;;37.35;20.63;;;-0.60;1.00;;;;;;7379312;19;20011;-70
2024/01/10 11:10:48;;;;;;;39.53;21.15;;;-0.60;1.00;;;;;;7378792;19;20018;-70
2024/01/10 11:13:30;;;;;;;38.13;20.73;;;-0.40;1.00;;;;;;7379642;19;20768;-70
2024/01/10 11:16:25;;;;;;;37.95;22.33;;;-0.40;1.00;;;;;;7377741;19;20014;-69
2024/01/10 11:19:14;;;;;;;36.17;22.13;;;-0.40;1.00;;;;;;6868663;19;2003915;-70
2024/01/10 11:22:07;;;;;;;40.42;23.35;;;-0.30;1.00;;;;;;7374596;19;20014;-68
2024/01/10 11:24:37;;;;;;;37.67;21.92;;;-0.20;1.00;;;;;;7377606;19;20019;-69
2024/01/10 11:27:14;;;;;;;36.05;21.75;;;-0.20;1.00;;;;;;7379604;19;20040;-69
2024/01/10 11:29:44;;;;;;;36.30;22.05;;;-0.20;1.00;;;;;;7378085;19;20009;-71
2024/01/10 11:32:19;;;;;;;38.17;21.15;;;-0.10;1.00;;;;;;7380348;19;20006;-68
2024/01/10 11:34:58;;;;;;;37.63;22.92;;;-0.10;1.00;;;;;;7381942;19;20015;-68
2024/01/10 11:37:40;;;;;;;40.60;21.90;;;-0.20;1.00;;;;;;7380506;19;20034;-68
2024/01/10 11:40:11;;;;;;;36.28;21.08;;;0.00;1.00;;;;;;7374755;19;20011;-70
2024/01/10 11:42:54;;;;;;;37.65;21.05;;;-0.20;1.00;;;;;;7411800;19;20349;-69
2024/01/10 11:45:39;;;;;;;38.35;21.13;;;-0.30;1.00;;;;;;7412275;19;20018;-69
2024/01/10 11:48:09;;;;;;;;;;;-0.60;1.00;;;;;;7412662;19;20077;-69
2024/01/10 11:50:40;;;;;;;37.58;21.38;;;-0.40;1.00;;;;;;7409267;19;19921;-70
2024/01/10 11:53:11;;;;;;;42.08;23.40;;;-0.40;1.00;;;;;;7411263;19;20014;-71
2024/01/10 11:55:54;;;;;;;42.25;23.50;;;-0.30;1.00;;;;;;7411054;19;20039;-68
2024/01/10 11:58:28;;;;;;;37.63;21.95;;;-0.20;1.00;;;;;;7407305;19;20029;-68
2024/01/10 12:00:58;;;;;;;33.63;22.38;;;-0.40;1.00;;;;;;7411799;19;20059;-69
2024/01/10 12:03:30;;;;;;;37.92;22.88;;;-0.20;1.00;;;;;;7409992;19;20006;-69
2024/01/10 12:06:01;;;;;;;37.35;23.02;;;-0.10;1.00;;;;;;7411080;19;20016;-70
2024/01/10 12:08:32;;;;;;;39.08;22.90;;;-0.10;1.00;;;;;;7409847;19;20022;-69
2024/01/10 12:11:02;;;;;;;38.75;23.70;;;0.00;1.00;;;;;;7411187;19;20416;-69
2024/01/10 12:13:34;;;;;;;39.75;22.55;;;-0.20;1.00;;;;;;7412028;19;20040;-69
2024/01/10 12:16:04;;;;;;;34.42;21.55;;;-0.40;1.00;;;;;;7410434;19;20026;-69
2024/01/10 12:18:34;;;;;;;39.20;23.20;;;-0.20;1.00;;;;;;7410538;19;20384;-69
2024/01/10 12:21:05;;;;;;;40.92;23.05;;;-0.20;1.00;;;;;;7411103;19;20026;-69
2024/01/10 12:23:35;;;;;;;39.30;22.80;;;-0.20;1.00;;;;;;7410818;19;20034;-69
2024/01/10 12:26:07;;;;;;;38.08;21.92;;;-0.20;1.00;;;;;;7412113;19;20102;-69
2024/01/10 12:28:40;;;;;;;39.28;23.30;;;-0.10;1.00;;;;;;7411983;19;20014;-69
2024/01/10 12:31:10;;;;;;;38.88;23.45;;;-0.10;1.00;;;;;;7410726;19;20006;-69
2024/01/10 12:33:42;;;;;;;42.67;23.83;;;0.00;1.00;;;;;;7411855;19;20021;-68
2024/01/10 12:36:13;;;;;;;39.47;23.80;;;0.00;1.00;;;;;;7411478;19;20075;-68
2024/01/10 12:38:44;;;;;;;37.17;22.25;;;0.10;1.00;;;;;;7405964;19;20509;-67
2024/01/10 12:41:16;;;;;;;39.67;22.73;;;0.00;1.00;;;;;;7410050;19;20006;-69
2024/01/10 12:43:51;;;;;;;38.95;21.92;;;0.00;1.00;;;;;;7412814;19;20761;-68
2024/01/10 12:46:21;;;;;;;34.55;22.02;;;0.00;1.00;;;;;;7408000;19;20015;-69
2024/01/10 12:49:01;;;;;;;44.30;22.70;;;0.00;1.00;;;;;;7410450;19;20010;-68
2024/01/10 12:51:33;;;;;;;41.72;24.60;;;0.00;1.00;;;;;;7409669;19;20448;-70
2024/01/10 12:54:04;;;;;;;41.55;23.20;;;0.10;1.00;;;;;;7383164;19;20423;-68
2024/01/10 12:56:35;;;;;;;38.53;23.20;;;0.10;1.00;;;;;;7381857;19;20477;-69
2024/01/10 12:59:09;;;;;;;37.05;22.90;;;0.20;1.00;;;;;;7381101;19;20014;-69
2024/01/10 13:01:39;;;;;;;44.42;23.05;;;0.00;1.00;;;;;;7381970;19;20026;-69